createdAt,value
2022-10-07T00:01:51.130Z,5.71
2022-10-07T00:04:18.305Z,5.65
2022-10-07T00:06:46.007Z,5.60
2022-10-07T00:09:16.183Z,5.67
2022-10-07T00:11:43.183Z,5.60
2022-10-07T00:14:12.225Z,5.82
2022-10-07T00:16:41.216Z,5.90
2022-10-07T00:19:14.186Z,6.05
2022-10-07T00:22:14.196Z,5.73
2022-10-07T00:24:41.006Z,5.47
2022-10-07T00:27:07.971Z,5.65
2022-10-07T00:29:44.259Z,5.47
2022-10-07T00:32:13.198Z,5.51
2022-10-07T00:34:45.203Z,5.31
2022-10-07T00:37:23.024Z,5.28
2022-10-07T00:39:50.011Z,5.29
2022-10-07T00:42:18.229Z,5.56
2022-10-07T00:44:48.953Z,5.73
2022-10-07T00:47:34.371Z,5.60
2022-10-07T00:50:08.579Z,5.53
2022-10-07T00:52:47.002Z,5.68
2022-10-07T00:55:16.813Z,5.74
2022-10-07T00:57:45.273Z,5.90
2022-10-07T01:00:16.453Z,5.84
2022-10-07T01:02:43.339Z,5.65
2022-10-07T01:05:10.925Z,5.57
2022-10-07T01:07:38.836Z,5.36
2022-10-07T01:10:06.466Z,5.31
2022-10-07T01:12:43.900Z,5.31
2022-10-07T01:15:10.745Z,5.44
2022-10-07T01:17:41.945Z,5.57
2022-10-07T01:20:28.698Z,5.42
2022-10-07T01:23:21.798Z,5.26
2022-10-07T01:26:10.563Z,5.29
2022-10-07T01:28:47.087Z,5.46
2022-10-07T01:31:17.592Z,5.63
2022-10-07T01:33:46.007Z,5.70
2022-10-07T01:36:24.136Z,5.76
2022-10-07T01:38:57.384Z,5.63
2022-10-07T01:41:25.595Z,5.60
2022-10-07T01:43:55.516Z,5.37
2022-10-07T01:46:36.459Z,5.40
2022-10-07T01:49:05.050Z,5.28
2022-10-07T01:51:40.763Z,5.23
2022-10-07T01:54:10.644Z,5.16
2022-10-07T01:57:02.382Z,5.10
2022-10-07T01:59:30.456Z,5.21
2022-10-07T02:02:12.491Z,5.28
2022-10-07T02:04:59.456Z,5.43
2022-10-07T02:07:41.790Z,5.35
2022-10-07T02:10:32.103Z,5.24
2022-10-07T02:12:59.556Z,4.94
2022-10-07T02:15:45.196Z,4.78
2022-10-07T02:18:15.722Z,4.71
2022-10-07T02:20:52.142Z,4.81
2022-10-07T02:23:20.558Z,4.82
2022-10-07T02:26:00.626Z,4.75
2022-10-07T02:28:28.383Z,4.87
2022-10-07T02:31:07.623Z,4.88
2022-10-07T02:33:54.507Z,4.88
2022-10-07T02:36:36.540Z,5.03
2022-10-07T02:39:04.121Z,4.87
2022-10-07T02:41:52.439Z,5.15
2022-10-07T02:44:27.218Z,5.15
2022-10-07T02:47:14.447Z,5.05
2022-10-07T02:49:49.706Z,4.91
2022-10-07T02:52:18.840Z,4.76
2022-10-07T02:55:00.700Z,4.75
2022-10-07T02:57:30.674Z,4.71
2022-10-07T02:59:59.069Z,4.73
2022-10-07T03:02:46.837Z,4.57
2022-10-07T03:05:28.849Z,4.73
2022-10-07T03:08:19.927Z,4.62
2022-10-07T03:10:54.995Z,4.35
2022-10-07T03:13:26.178Z,4.60
2022-10-07T03:15:54.041Z,4.54
2022-10-07T03:18:39.311Z,4.33
2022-10-07T03:21:09.089Z,4.23
2022-10-07T03:23:43.734Z,4.18
2022-10-07T03:26:10.682Z,4.24
2022-10-07T03:28:44.264Z,4.23
2022-10-07T03:31:12.209Z,4.10
2022-10-07T03:33:42.115Z,4.06
2022-10-07T03:36:09.305Z,4.25
2022-10-07T03:38:49.584Z,4.46
2022-10-07T03:41:16.883Z,4.24
2022-10-07T03:43:46.888Z,4.29
2022-10-07T03:46:20.780Z,4.38
2022-10-07T03:48:51.853Z,4.47
2022-10-07T03:51:18.849Z,4.41
2022-10-07T03:53:57.705Z,4.25
2022-10-07T03:56:25.729Z,4.22
2022-10-07T03:59:00.076Z,3.98
2022-10-07T04:01:27.012Z,3.99
2022-10-07T04:03:58.018Z,3.78
2022-10-07T04:06:24.965Z,3.84
2022-10-07T04:09:00.836Z,4.20
2022-10-07T04:11:27.767Z,4.19
2022-10-07T04:13:55.885Z,4.00
2022-10-07T04:16:23.318Z,3.73
2022-10-07T04:18:50.243Z,3.56
2022-10-07T04:21:17.452Z,3.64
2022-10-07T04:23:46.310Z,3.50
2022-10-07T04:26:14.239Z,3.45
2022-10-07T04:28:41.378Z,3.36
2022-10-07T04:31:09.366Z,3.54
2022-10-07T04:33:40.348Z,3.84
2022-10-07T04:36:09.517Z,4.07
2022-10-07T04:38:36.543Z,4.05
2022-10-07T04:41:05.586Z,4.01
2022-10-07T04:43:34.285Z,3.94
2022-10-07T04:46:04.236Z,3.86
2022-10-07T04:48:34.723Z,3.92
2022-10-07T04:51:05.997Z,3.97
2022-10-07T04:53:34.347Z,3.99
2022-10-07T04:56:02.231Z,4.06
2022-10-07T04:58:31.831Z,4.03
2022-10-07T05:00:59.644Z,3.98
2022-10-07T05:03:27.754Z,3.95
2022-10-07T05:05:56.859Z,4.00
2022-10-07T05:08:29.993Z,3.92
2022-10-07T05:10:57.481Z,3.75
2022-10-07T05:13:26.316Z,3.74
2022-10-07T05:15:53.120Z,3.63
2022-10-07T05:18:21.497Z,3.45
2022-10-07T05:20:49.912Z,3.44
2022-10-07T05:23:24.417Z,3.47
2022-10-07T05:26:04.962Z,3.55
2022-10-07T05:28:40.430Z,3.61
2022-10-07T05:31:09.068Z,3.61
2022-10-07T05:33:38.089Z,3.73
2022-10-07T05:36:10.152Z,3.56
2022-10-07T05:38:43.525Z,3.45
2022-10-07T05:41:11.412Z,3.44
2022-10-07T05:43:46.933Z,3.60
2022-10-07T05:46:15.355Z,3.96
2022-10-07T05:48:46.286Z,4.08
2022-10-07T05:51:27.396Z,4.18
2022-10-07T05:53:57.236Z,4.23
2022-10-07T05:56:37.055Z,4.27
2022-10-07T05:59:05.139Z,4.41
2022-10-07T06:01:33.225Z,4.50
2022-10-07T06:04:00.216Z,4.58
2022-10-07T06:06:27.115Z,4.68
2022-10-07T06:09:23.664Z,4.89
2022-10-07T06:12:09.423Z,5.08
2022-10-07T06:14:43.135Z,5.28
2022-10-07T06:17:12.085Z,5.42
2022-10-07T06:19:40.031Z,5.58
2022-10-07T06:22:15.137Z,5.78
2022-10-07T06:24:42.086Z,5.92
2022-10-07T06:27:12.001Z,6.14
2022-10-07T06:29:48.118Z,6.43
2022-10-07T06:32:14.876Z,6.62
2022-10-07T06:35:09.163Z,6.80
2022-10-07T06:37:47.452Z,7.17
2022-10-07T06:40:16.861Z,7.35
2022-10-07T06:42:43.769Z,7.64
2022-10-07T06:45:12.788Z,7.78
2022-10-07T06:47:39.644Z,8.06
2022-10-07T06:50:07.808Z,8.09
2022-10-07T06:52:38.846Z,8.18
2022-10-07T06:55:15.255Z,8.26
2022-10-07T06:57:46.464Z,8.31
2022-10-07T07:00:20.795Z,8.46
2022-10-07T07:02:48.749Z,8.58
2022-10-07T07:05:17.737Z,8.74
2022-10-07T07:07:45.762Z,8.87
2022-10-07T07:10:12.899Z,9.02
2022-10-07T07:12:41.089Z,9.18
2022-10-07T07:15:21.807Z,9.43
2022-10-07T07:17:50.245Z,9.69
2022-10-07T07:20:18.186Z,10.04
2022-10-07T07:22:47.047Z,10.26
2022-10-07T07:25:14.805Z,10.50
2022-10-07T07:28:13.489Z,10.55
2022-10-07T07:30:44.530Z,10.75
2022-10-07T07:33:13.355Z,10.94
2022-10-07T07:35:45.699Z,11.13
2022-10-07T07:38:15.820Z,11.26
2022-10-07T07:40:42.545Z,11.40
2022-10-07T07:43:20.545Z,11.54
2022-10-07T07:45:48.619Z,11.68
2022-10-07T07:48:17.565Z,11.90
2022-10-07T07:51:00.812Z,12.03
2022-10-07T07:53:27.768Z,12.17
2022-10-07T07:56:09.300Z,12.37
2022-10-07T07:58:45.453Z,12.59
2022-10-07T08:01:14.423Z,12.66
2022-10-07T08:03:46.697Z,12.90
2022-10-07T08:06:15.537Z,13.01
2022-10-07T08:08:43.453Z,13.15
2022-10-07T08:11:11.276Z,13.26
2022-10-07T08:13:47.339Z,13.44
2022-10-07T08:16:16.146Z,13.60
2022-10-07T08:18:44.623Z,13.56
2022-10-07T08:21:11.891Z,13.62
2022-10-07T08:23:40.231Z,13.66
2022-10-07T08:26:08.720Z,13.82
2022-10-07T08:28:42.703Z,13.80
2022-10-07T08:31:15.705Z,14.03
2022-10-07T08:33:45.178Z,14.18
2022-10-07T08:36:14.429Z,14.16
2022-10-07T08:38:52.993Z,14.36
2022-10-07T08:41:40.047Z,14.32
2022-10-07T08:44:27.299Z,14.30
2022-10-07T08:47:07.609Z,14.42
2022-10-07T08:49:44.306Z,14.40
2022-10-07T08:52:21.218Z,14.34
2022-10-07T08:54:49.713Z,14.63
2022-10-07T08:57:34.953Z,14.69
2022-10-07T09:00:07.268Z,14.91
2022-10-07T09:02:54.114Z,15.45
2022-10-07T09:05:21.056Z,16.46
2022-10-07T09:07:54.348Z,17.75
2022-10-07T09:10:25.340Z,18.62
2022-10-07T09:12:59.262Z,19.25
2022-10-07T09:15:41.672Z,19.01
2022-10-07T09:18:36.547Z,18.47
2022-10-07T09:21:08.518Z,18.25
2022-10-07T09:23:43.661Z,18.61
2022-10-07T09:26:12.168Z,19.21
2022-10-07T09:28:40.369Z,19.79
2022-10-07T09:31:08.860Z,19.63
2022-10-07T09:33:42.615Z,20.01
2022-10-07T09:36:11.654Z,20.16
2022-10-07T09:38:42.117Z,20.36
2022-10-07T09:41:17.657Z,19.26
2022-10-07T09:43:50.858Z,19.11
2022-10-07T09:46:42.944Z,19.48
2022-10-07T09:49:27.418Z,21.11
2022-10-07T09:52:02.448Z,21.00
2022-10-07T09:54:30.622Z,21.43
2022-10-07T09:56:58.614Z,22.37
2022-10-07T09:59:32.334Z,22.40
2022-10-07T10:02:10.165Z,21.21
2022-10-07T10:04:38.235Z,22.24
2022-10-07T10:07:06.370Z,22.65
2022-10-07T10:09:40.316Z,22.34
2022-10-07T10:12:20.450Z,22.18
2022-10-07T10:14:48.274Z,21.25
2022-10-07T10:17:31.636Z,21.85
2022-10-07T10:20:22.984Z,22.07
2022-10-07T10:23:15.206Z,23.29
2022-10-07T10:26:07.878Z,24.53
2022-10-07T10:28:45.300Z,24.34
2022-10-07T10:31:29.672Z,23.74
2022-10-07T10:34:02.265Z,24.06
2022-10-07T10:36:33.211Z,24.13
2022-10-07T10:39:23.412Z,22.92
2022-10-07T10:41:52.818Z,21.97
2022-10-07T10:44:32.450Z,23.28
2022-10-07T10:47:04.189Z,25.02
2022-10-07T10:49:38.140Z,24.57
2022-10-07T10:52:13.754Z,24.06
2022-10-07T10:55:01.646Z,24.70
2022-10-07T10:57:45.496Z,25.32
2022-10-07T11:00:25.030Z,24.93
2022-10-07T11:02:52.977Z,25.90
2022-10-07T11:05:48.132Z,25.75
2022-10-07T11:08:27.771Z,24.86
2022-10-07T11:10:58.806Z,24.12
2022-10-07T11:13:27.723Z,23.50
2022-10-07T11:15:59.957Z,23.93
2022-10-07T11:18:31.830Z,23.63
2022-10-07T11:20:59.970Z,24.23
2022-10-07T11:23:32.812Z,25.17
2022-10-07T11:26:19.247Z,25.88
2022-10-07T11:28:46.851Z,24.90
2022-10-07T11:31:20.437Z,25.74
2022-10-07T11:33:48.329Z,25.43
2022-10-07T11:36:37.802Z,26.42
2022-10-07T11:39:05.709Z,25.89
2022-10-07T11:41:35.412Z,25.41
2022-10-07T11:44:19.035Z,24.82
2022-10-07T11:46:46.551Z,25.71
2022-10-07T11:49:13.391Z,26.36
2022-10-07T11:52:00.745Z,26.97
2022-10-07T11:54:32.066Z,28.22
2022-10-07T11:57:17.436Z,27.35
2022-10-07T11:59:48.271Z,26.08
2022-10-07T12:02:38.835Z,26.94
2022-10-07T12:05:06.079Z,27.08
2022-10-07T12:07:36.553Z,26.12
2022-10-07T12:10:18.588Z,26.34
2022-10-07T12:13:04.222Z,26.63
2022-10-07T12:15:33.166Z,27.44
2022-10-07T12:18:03.050Z,27.23
2022-10-07T12:20:58.052Z,26.20
2022-10-07T12:23:31.191Z,25.70
2022-10-07T12:26:03.345Z,26.09
2022-10-07T12:28:34.744Z,27.58
2022-10-07T12:31:01.740Z,28.30
2022-10-07T12:33:43.717Z,29.11
2022-10-07T12:36:38.386Z,28.52
2022-10-07T12:39:10.167Z,26.33
2022-10-07T12:41:40.593Z,24.64
2022-10-07T12:44:08.663Z,24.27
2022-10-07T12:46:56.857Z,25.36
2022-10-07T12:49:52.355Z,25.00
2022-10-07T12:52:24.682Z,25.06
2022-10-07T12:55:01.730Z,23.66
2022-10-07T12:57:33.104Z,24.06
2022-10-07T13:00:08.277Z,25.19
2022-10-07T13:02:55.012Z,25.81
2022-10-07T13:05:40.672Z,25.61
2022-10-07T13:08:07.493Z,25.24
2022-10-07T13:10:41.417Z,25.36
2022-10-07T13:13:27.547Z,25.97
2022-10-07T13:15:58.417Z,25.65
2022-10-07T13:18:45.388Z,25.63
2022-10-07T13:21:13.387Z,25.89
2022-10-07T13:23:49.409Z,26.26
2022-10-07T13:26:16.353Z,27.02
2022-10-07T13:29:08.064Z,27.40
2022-10-07T13:31:37.229Z,28.32
2022-10-07T13:34:15.631Z,28.07
2022-10-07T13:36:44.529Z,28.06
2022-10-07T13:39:31.521Z,28.09
2022-10-07T13:41:59.830Z,27.12
2022-10-07T13:44:30.671Z,27.56
2022-10-07T13:47:02.473Z,26.02
2022-10-07T13:49:30.954Z,26.00
2022-10-07T13:52:00.245Z,26.48
2022-10-07T13:54:28.210Z,25.58
2022-10-07T13:56:58.252Z,25.91
2022-10-07T13:59:29.654Z,26.84
2022-10-07T14:01:58.674Z,27.39
2022-10-07T14:04:34.901Z,28.12
2022-10-07T14:07:23.622Z,27.49
2022-10-07T14:10:10.091Z,27.12
2022-10-07T14:12:41.000Z,27.71
2022-10-07T14:15:41.543Z,27.21
2022-10-07T14:18:11.536Z,26.65
2022-10-07T14:20:58.219Z,27.35
2022-10-07T14:23:47.309Z,26.71
2022-10-07T14:26:39.486Z,27.35
2022-10-07T14:29:22.731Z,27.79
2022-10-07T14:32:19.077Z,27.80
2022-10-07T14:35:04.505Z,27.51
2022-10-07T14:37:32.018Z,28.09
2022-10-07T14:40:16.258Z,28.58
2022-10-07T14:42:43.513Z,28.61
2022-10-07T14:45:15.320Z,28.97
2022-10-07T14:47:46.429Z,29.14
2022-10-07T14:50:13.887Z,28.62
2022-10-07T14:52:52.310Z,28.62
2022-10-07T14:55:23.409Z,27.43
2022-10-07T14:57:51.330Z,26.90
2022-10-07T15:00:21.046Z,26.89
2022-10-07T15:02:53.518Z,27.12
2022-10-07T15:05:21.114Z,26.94
2022-10-07T15:07:50.230Z,26.12
2022-10-07T15:10:21.826Z,24.82
2022-10-07T15:12:49.915Z,24.30
2022-10-07T15:15:22.792Z,23.70
2022-10-07T15:17:50.578Z,23.69
2022-10-07T15:20:17.735Z,23.15
2022-10-07T15:22:46.129Z,22.55
2022-10-07T15:25:15.690Z,22.59
2022-10-07T15:27:42.947Z,22.58
2022-10-07T15:30:11.250Z,22.43
2022-10-07T15:32:39.226Z,22.18
2022-10-07T15:35:06.323Z,22.11
2022-10-07T15:37:34.505Z,21.74
2022-10-07T15:40:03.394Z,21.46
2022-10-07T15:42:30.376Z,21.29
2022-10-07T15:44:58.370Z,21.22
2022-10-07T15:47:39.658Z,21.09
2022-10-07T15:50:07.162Z,20.81
2022-10-07T15:52:34.098Z,20.53
2022-10-07T15:55:07.560Z,20.36
2022-10-07T15:57:38.901Z,20.24
2022-10-07T16:00:06.884Z,20.07
2022-10-07T16:02:36.346Z,20.00
2022-10-07T16:05:04.401Z,19.87
2022-10-07T16:07:40.341Z,19.83
2022-10-07T16:10:13.443Z,19.63
2022-10-07T16:12:42.677Z,19.54
2022-10-07T16:15:09.702Z,19.43
2022-10-07T16:17:36.510Z,19.32
2022-10-07T16:20:11.259Z,19.09
2022-10-07T16:22:44.671Z,19.04
2022-10-07T16:25:12.865Z,18.90
2022-10-07T16:28:17.909Z,18.82
2022-10-07T16:30:50.355Z,18.79
2022-10-07T16:33:23.284Z,18.61
2022-10-07T16:35:50.216Z,18.54
2022-10-07T16:38:19.030Z,18.47
2022-10-07T16:40:51.624Z,18.17
2022-10-07T16:43:18.486Z,18.03
2022-10-07T16:45:54.372Z,17.86
2022-10-07T16:48:23.282Z,17.60
2022-10-07T16:50:51.172Z,17.48
2022-10-07T16:53:18.045Z,17.43
2022-10-07T16:55:49.022Z,17.55
2022-10-07T16:58:16.896Z,17.59
2022-10-07T17:00:43.876Z,17.64
2022-10-07T17:03:11.771Z,17.65
2022-10-07T17:05:39.526Z,17.65
2022-10-07T17:08:08.399Z,17.55
2022-10-07T17:10:35.230Z,17.30
2022-10-07T17:13:04.491Z,17.11
2022-10-07T17:15:33.590Z,16.89
2022-10-07T17:18:05.451Z,16.63
2022-10-07T17:20:33.306Z,16.52
2022-10-07T17:23:04.457Z,16.29
2022-10-07T17:25:31.421Z,16.24
2022-10-07T17:27:59.406Z,16.18
2022-10-07T17:30:26.401Z,16.08
2022-10-07T17:32:55.335Z,16.17
2022-10-07T17:35:22.308Z,16.15
2022-10-07T17:37:50.936Z,16.17
2022-10-07T17:40:43.824Z,16.18
2022-10-07T17:43:10.586Z,16.12
2022-10-07T17:45:38.067Z,15.99
2022-10-07T17:48:10.444Z,15.98
2022-10-07T17:50:39.433Z,15.85
2022-10-07T17:53:07.758Z,15.89
2022-10-07T17:55:34.816Z,15.91
2022-10-07T17:58:12.019Z,15.88
2022-10-07T18:00:38.929Z,15.82
2022-10-07T18:03:13.439Z,15.72
2022-10-07T18:05:40.286Z,15.67
2022-10-07T18:08:16.361Z,15.73
2022-10-07T18:10:45.306Z,15.73
2022-10-07T18:13:32.818Z,15.71
2022-10-07T18:16:04.927Z,15.70
2022-10-07T18:18:33.895Z,15.69
2022-10-07T18:21:04.834Z,15.58
2022-10-07T18:23:33.676Z,15.51
2022-10-07T18:26:03.600Z,15.50
2022-10-07T18:28:34.873Z,15.47
2022-10-07T18:31:11.496Z,15.48
2022-10-07T18:33:49.149Z,15.24
2022-10-07T18:36:25.432Z,15.21
2022-10-07T18:38:52.692Z,15.15
2022-10-07T18:41:19.886Z,15.06
2022-10-07T18:43:51.051Z,15.04
2022-10-07T18:46:28.762Z,14.86
2022-10-07T18:48:59.181Z,14.85
2022-10-07T18:51:34.243Z,14.92
2022-10-07T18:54:02.176Z,14.99
2022-10-07T18:56:41.509Z,15.09
2022-10-07T18:59:10.518Z,15.05
2022-10-07T19:01:40.820Z,15.12
2022-10-07T19:04:08.934Z,15.36
2022-10-07T19:06:44.132Z,15.21
2022-10-07T19:09:14.913Z,15.08
2022-10-07T19:11:42.712Z,15.09
2022-10-07T19:14:13.538Z,15.04
2022-10-07T19:16:44.578Z,15.02
2022-10-07T19:19:17.807Z,15.07
2022-10-07T19:21:48.033Z,14.99
2022-10-07T19:24:16.332Z,14.98
2022-10-07T19:26:45.172Z,14.64
2022-10-07T19:29:13.466Z,14.75
2022-10-07T19:31:42.830Z,14.58
2022-10-07T19:34:14.036Z,14.84
2022-10-07T19:36:47.386Z,14.84
2022-10-07T19:39:19.872Z,14.76
2022-10-07T19:41:53.129Z,14.71
2022-10-07T19:44:20.133Z,14.75
2022-10-07T19:46:54.595Z,14.68
2022-10-07T19:49:22.506Z,14.74
2022-10-07T19:51:49.729Z,14.73
2022-10-07T19:54:16.690Z,14.74
2022-10-07T19:56:45.904Z,14.70
2022-10-07T19:59:30.146Z,14.74
2022-10-07T20:02:00.967Z,14.69
2022-10-07T20:04:28.286Z,14.62
2022-10-07T20:06:59.492Z,14.76
2022-10-07T20:09:27.953Z,14.77
2022-10-07T20:11:56.614Z,14.84
2022-10-07T20:14:23.658Z,14.96
2022-10-07T20:16:51.786Z,15.04
2022-10-07T20:19:19.832Z,15.08
2022-10-07T20:22:06.946Z,15.15
2022-10-07T20:24:34.816Z,15.15
2022-10-07T20:27:09.248Z,15.18
2022-10-07T20:29:56.106Z,15.20
2022-10-07T20:32:23.819Z,15.27
2022-10-07T20:34:52.576Z,15.25
2022-10-07T20:37:26.596Z,15.26
2022-10-07T20:40:13.508Z,15.22
2022-10-07T20:42:46.668Z,15.23
2022-10-07T20:45:13.838Z,15.27
2022-10-07T20:47:40.791Z,15.25
2022-10-07T20:50:08.944Z,15.26
2022-10-07T20:52:36.821Z,15.21
2022-10-07T20:55:04.044Z,15.16
2022-10-07T20:57:38.074Z,15.14
2022-10-07T21:00:13.053Z,14.98
2022-10-07T21:02:41.330Z,14.69
2022-10-07T21:05:14.338Z,14.80
2022-10-07T21:07:43.133Z,14.83
2022-10-07T21:10:13.209Z,14.81
2022-10-07T21:12:41.185Z,14.81
2022-10-07T21:15:10.173Z,14.80
2022-10-07T21:17:41.384Z,14.82
2022-10-07T21:20:34.986Z,14.82
2022-10-07T21:23:02.888Z,14.90
2022-10-07T21:25:32.965Z,14.88
2022-10-07T21:28:00.552Z,14.89
2022-10-07T21:30:33.586Z,15.04
2022-10-07T21:33:19.256Z,15.00
2022-10-07T21:35:47.794Z,14.75
2022-10-07T21:38:15.677Z,14.89
2022-10-07T21:40:48.526Z,15.02
2022-10-07T21:43:15.526Z,14.88
2022-10-07T21:45:44.722Z,14.73
2022-10-07T21:48:13.728Z,14.75
2022-10-07T21:50:42.540Z,14.86
2022-10-07T21:53:34.010Z,14.67
2022-10-07T21:56:04.941Z,14.46
2022-10-07T21:58:36.260Z,14.30
2022-10-07T22:01:08.821Z,14.22
2022-10-07T22:03:36.721Z,14.11
2022-10-07T22:06:09.511Z,13.96
2022-10-07T22:08:41.389Z,13.91
2022-10-07T22:11:23.696Z,13.93
2022-10-07T22:13:56.573Z,13.97
2022-10-07T22:16:57.651Z,14.29
2022-10-07T22:19:36.552Z,14.38
2022-10-07T22:22:03.707Z,14.26
2022-10-07T22:24:32.782Z,14.21
2022-10-07T22:27:01.692Z,14.19
2022-10-07T22:29:30.605Z,13.96
2022-10-07T22:31:58.551Z,13.98
2022-10-07T22:34:56.345Z,13.77
2022-10-07T22:37:32.194Z,13.66
2022-10-07T22:39:59.077Z,13.58
2022-10-07T22:42:26.459Z,13.60
2022-10-07T22:44:53.277Z,13.67
2022-10-07T22:47:21.426Z,13.71
2022-10-07T22:49:48.762Z,13.37
2022-10-07T22:52:16.709Z,13.26
2022-10-07T22:54:44.707Z,13.40
2022-10-07T22:57:11.562Z,13.36
2022-10-07T22:59:39.233Z,13.01
2022-10-07T23:02:11.234Z,12.99
2022-10-07T23:04:39.070Z,13.09
2022-10-07T23:07:18.264Z,13.04
2022-10-07T23:09:52.926Z,12.76
2022-10-07T23:12:19.849Z,12.89
2022-10-07T23:14:46.827Z,13.12
2022-10-07T23:17:14.665Z,13.10
2022-10-07T23:19:42.772Z,12.82
2022-10-07T23:22:10.732Z,12.61
2022-10-07T23:24:37.631Z,12.49
2022-10-07T23:27:07.481Z,12.45
2022-10-07T23:29:34.458Z,12.62
2022-10-07T23:32:02.496Z,12.77
2022-10-07T23:34:41.653Z,12.70
2022-10-07T23:37:25.455Z,12.72
2022-10-07T23:39:52.438Z,12.76
2022-10-07T23:42:20.757Z,12.67
2022-10-07T23:44:47.663Z,12.60
2022-10-07T23:47:24.863Z,12.46
2022-10-07T23:49:55.736Z,12.58
2022-10-07T23:52:29.454Z,12.68
2022-10-07T23:54:59.511Z,12.73
2022-10-07T23:57:26.592Z,12.70
2022-10-07T23:59:55.432Z,12.87
